Archival Weather

Vermilion Rgnl

Danville, Illinois (KDNV)

Report from: Tuesday, March 26, 2024 12:55 PM CDT
Current time: Sunday, July 14, 2024 5:28 AM CDT

Current weather – Weather history – Daily summaries
Weather forecast

Temperature6.4°C (43.5°F)
Wind chill1.0°C (33.8°F)
Dew point2.4°C (36.3°F)
Winds 23 kts (11.8 m/s, 26.5 mph) West-Southwest (240°)
Wind gusts 32 kts (16.5 m/s, 36.8 mph)
Visibility10 mi. (16.1 km)
Clouds Scattered clouds 2,100 ft. (640 m)
Ceiling: Overcast 3,600 ft. (1,097 m)
Altimeter29.62 in.Hg (1003 mB)
Relative humidity76 %
Density altitude-580 ft. (-177 m)
Remarks Fully automated report
Automated weather observing station with precipitation discriminator
Flight conditions Visual Meteorological Conditions
Raw dataKDNV 261755Z AUTO 24023G32KT 10SM SCT021 OVC036 06/02 A2962 RMK AO2 T00640024 10157 20063
An error has occurred. This application may no longer respond until reloaded. Reload 🗙